Time;durP1;ratioP1;P1;durP2;ratioP2;P2;SDS_P1;SDS_P2;PMS_P1;PMS_P2;Temp;Humidity;BMP_temperature;BMP_pressure;BME280_temperature;BME280_humidity;BME280_pressure;Samples;Min_cycle;Max_cycle;Signal;HPM_P1;HPM_P2
2022/07/06 00:02:05;;;;;;;7.60;3.75;;;;;;;;;;10058012;28;20042;-64
2022/07/06 00:06:59;;;;;;;5.28;4.82;;;;;;;;;;10063116;28;20068;-64
2022/07/06 00:11:54;;;;;;;10.25;5.97;;;;;;;;;;10066426;28;20099;-64
2022/07/06 00:16:49;;;;;;;7.03;4.53;;;;;;;;;;10061696;28;20527;-64
2022/07/06 00:21:43;;;;;;;6.90;4.82;;;;;;;;;;10051232;28;20563;-64
2022/07/06 00:26:36;;;;;;;12.50;5.65;;;;;;;;;;10060501;28;20412;-64
2022/07/06 00:31:31;;;;;;;10.10;4.70;;;;;;;;;;10059378;28;20045;-64
2022/07/06 00:36:25;;;;;;;10.88;5.72;;;;;;;;;;10064851;28;20045;-65
2022/07/06 00:41:17;;;;;;;7.05;4.03;;;;;;;;;;10071619;28;20065;-65
2022/07/06 00:46:12;;;;;;;5.05;3.38;;;;;;;;;;10059399;28;20052;-64
2022/07/06 00:51:06;;;;;;;8.38;3.35;;;;;;;;;;10066287;28;20204;-64
2022/07/06 00:55:59;;;;;;;5.97;2.95;;;;;;;;;;10086348;28;20072;-64
2022/07/06 01:00:53;;;;;;;9.57;3.00;;;;;;;;;;10070042;28;20060;-64
2022/07/06 01:05:46;;;;;;;6.75;3.08;;;;;;;;;;10071694;28;20080;-65
2022/07/06 01:10:41;;;;;;;7.85;3.30;;;;;;;;;;10066762;28;20128;-65
2022/07/06 01:15:34;;;;;;;9.95;2.38;;;;;;;;;;10067792;28;20054;-64
2022/07/06 01:20:29;;;;;;;4.18;2.97;;;;;;;;;;10071725;28;20053;-64
2022/07/06 01:25:23;;;;;;;6.97;3.20;;;;;;;;;;10062502;28;20055;-65
2022/07/06 01:30:18;;;;;;;3.47;2.83;;;;;;;;;;10068916;28;20050;-64
2022/07/06 01:35:13;;;;;;;5.80;3.70;;;;;;;;;;10050475;28;20111;-64
2022/07/06 01:40:11;;;;;;;2.88;2.20;;;;;;;;;;10072118;28;20058;-64
2022/07/06 01:45:06;;;;;;;2.93;2.50;;;;;;;;;;10082015;28;20049;-64
2022/07/06 01:50:01;;;;;;;17.25;2.97;;;;;;;;;;10080386;28;20121;-64
2022/07/06 01:54:57;;;;;;;8.95;2.42;;;;;;;;;;10065797;28;20057;-64
2022/07/06 01:59:52;;;;;;;4.78;2.50;;;;;;;;;;10084935;28;20551;-64
2022/07/06 02:04:46;;;;;;;9.23;2.70;;;;;;;;;;10078402;28;20060;-64
2022/07/06 02:09:39;;;;;;;3.95;2.15;;;;;;;;;;10061638;28;20084;-64
2022/07/06 02:14:34;;;;;;;2.70;2.47;;;;;;;;;;10070068;28;20091;-64
2022/07/06 02:19:31;;;;;;;8.55;3.17;;;;;;;;;;10070147;28;20071;-64
2022/07/06 02:24:25;;;;;;;5.55;2.58;;;;;;;;;;10081737;28;20064;-64
2022/07/06 02:29:19;;;;;;;4.45;2.83;;;;;;;;;;10077258;28;20041;-64
2022/07/06 02:34:13;;;;;;;2.50;2.30;;;;;;;;;;10067414;28;20048;-64
2022/07/06 02:39:06;;;;;;;8.20;3.25;;;;;;;;;;10067432;28;20053;-64
2022/07/06 02:44:00;;;;;;;4.35;2.75;;;;;;;;;;10062462;28;20058;-64
2022/07/06 02:48:54;;;;;;;2.88;2.28;;;;;;;;;;10066893;28;20055;-64
2022/07/06 02:53:47;;;;;;;5.28;2.58;;;;;;;;;;10062105;28;20045;-64
2022/07/06 02:58:42;;;;;;;5.53;1.92;;;;;;;;;;10082381;28;20115;-64
2022/07/06 03:03:36;;;;;;;5.20;2.22;;;;;;;;;;10054754;28;20065;-64
2022/07/06 03:08:31;;;;;;;6.30;2.65;;;;;;;;;;10062391;28;20481;-64
2022/07/06 03:13:25;;;;;;;3.83;2.05;;;;;;;;;;10056000;28;20065;-64
2022/07/06 03:18:19;;;;;;;5.72;2.42;;;;;;;;;;10080435;28;20049;-64
2022/07/06 03:23:14;;;;;;;8.80;2.50;;;;;;;;;;10073543;28;20051;-64
2022/07/06 03:28:08;;;;;;;8.82;2.60;;;;;;;;;;10066014;28;20396;-64
2022/07/06 03:33:02;;;;;;;9.23;2.22;;;;;;;;;;10056625;28;20128;-64
2022/07/06 03:37:56;;;;;;;3.20;2.53;;;;;;;;;;10059109;28;20443;-65
2022/07/06 03:42:54;;;;;;;8.75;2.13;;;;;;;;;;10075632;28;20500;-65
2022/07/06 03:47:47;;;;;;;3.88;2.10;;;;;;;;;;10063857;28;20085;-65
2022/07/06 03:52:40;;;;;;;3.85;2.05;;;;;;;;;;10070793;28;20053;-65
2022/07/06 03:57:35;;;;;;;2.63;2.00;;;;;;;;;;10074442;28;20061;-65
2022/07/06 04:02:30;;;;;;;8.65;2.65;;;;;;;;;;10071772;28;20073;-65
2022/07/06 04:07:25;;;;;;;4.10;2.13;;;;;;;;;;10058316;28;20050;-65
2022/07/06 04:12:20;;;;;;;5.65;2.55;;;;;;;;;;10074349;28;20487;-65
2022/07/06 04:22:26;;;;;;;3.20;2.42;;;;;;;;;;10067727;28;20128;-65
2022/07/06 04:27:19;;;;;;;6.18;2.10;;;;;;;;;;10083415;28;20408;-65
2022/07/06 04:32:13;;;;;;;6.28;2.40;;;;;;;;;;10071272;28;20104;-65
2022/07/06 04:37:07;;;;;;;5.65;2.33;;;;;;;;;;10069272;28;20057;-65
2022/07/06 04:42:02;;;;;;;7.47;2.40;;;;;;;;;;10078849;28;20072;-65
2022/07/06 04:46:56;;;;;;;7.03;2.20;;;;;;;;;;10077012;28;20046;-65
2022/07/06 04:51:52;;;;;;;6.43;3.00;;;;;;;;;;10066274;28;20072;-65
2022/07/06 04:56:48;;;;;;;7.80;2.67;;;;;;;;;;10081942;28;20575;-65
2022/07/06 05:01:43;;;;;;;11.43;2.63;;;;;;;;;;10078553;28;20569;-65
2022/07/06 05:06:38;;;;;;;8.75;2.72;;;;;;;;;;10068385;28;20054;-65
2022/07/06 05:11:31;;;;;;;7.00;2.60;;;;;;;;;;10086050;28;20045;-67
2022/07/06 05:16:26;;;;;;;13.32;3.25;;;;;;;;;;10065321;28;20063;-66
2022/07/06 05:21:21;;;;;;;8.45;3.47;;;;;;;;;;10053637;28;20049;-65
2022/07/06 05:26:14;;;;;;;8.57;3.03;;;;;;;;;;10077228;28;20054;-65
2022/07/06 05:31:09;;;;;;;3.95;1.88;;;;;;;;;;10059452;28;20045;-65
2022/07/06 05:36:03;;;;;;;5.45;2.55;;;;;;;;;;10057679;28;20136;-65
2022/07/06 05:40:57;;;;;;;5.78;2.42;;;;;;;;;;10066385;28;20046;-65
2022/07/06 05:45:51;;;;;;;4.55;2.03;;;;;;;;;;10073345;28;20057;-65
2022/07/06 05:50:47;;;;;;;5.22;1.98;;;;;;;;;;10077696;28;20511;-65
2022/07/06 05:55:42;;;;;;;5.28;1.90;;;;;;;;;;10060875;28;20049;-64
2022/07/06 06:00:37;;;;;;;7.68;2.33;;;;;;;;;;10065439;28;20061;-65
2022/07/06 06:05:37;;;;;;;3.78;1.90;;;;;;;;;;10047547;28;20045;-65
2022/07/06 06:10:34;;;;;;;9.38;2.40;;;;;;;;;;10066776;28;20095;-64
2022/07/06 06:15:32;;;;;;;14.65;1.95;;;;;;;;;;10059225;28;20049;-66
2022/07/06 06:20:25;;;;;;;5.97;2.03;;;;;;;;;;10058674;28;20053;-65
2022/07/06 06:25:20;;;;;;;8.20;2.03;;;;;;;;;;10064425;28;20056;-65
2022/07/06 06:30:15;;;;;;;14.55;1.92;;;;;;;;;;10053088;28;20045;-65
2022/07/06 06:35:14;;;;;;;3.70;1.60;;;;;;;;;;10051167;28;20054;-65
2022/07/06 06:40:13;;;;;;;3.55;1.65;;;;;;;;;;10047064;28;20064;-65
2022/07/06 06:45:10;;;;;;;3.55;1.63;;;;;;;;;;10058913;28;20045;-64
2022/07/06 06:50:06;;;;;;;5.70;1.60;;;;;;;;;;10053038;28;20045;-65
2022/07/06 06:55:00;;;;;;;4.32;1.42;;;;;;;;;;10053681;28;20124;-65
2022/07/06 06:59:57;;;;;;;3.00;1.45;;;;;;;;;;10057644;28;20085;-65
2022/07/06 07:04:54;;;;;;;7.22;1.65;;;;;;;;;;10046088;28;20057;-65
2022/07/06 07:09:47;;;;;;;3.20;1.55;;;;;;;;;;10049647;28;20104;-65
2022/07/06 07:14:41;;;;;;;7.07;1.80;;;;;;;;;;10049599;28;20045;-65
2022/07/06 07:19:35;;;;;;;2.25;1.50;;;;;;;;;;10058034;28;20077;-65
2022/07/06 07:24:29;;;;;;;7.32;2.63;;;;;;;;;;10049935;28;20053;-65
2022/07/06 07:29:24;;;;;;;8.30;1.65;;;;;;;;;;10052072;28;20053;-65
2022/07/06 07:34:18;;;;;;;3.53;1.40;;;;;;;;;;10053597;28;21445;-63
2022/07/06 07:39:12;;;;;;;3.08;1.88;;;;;;;;;;10062886;28;20041;-64
2022/07/06 07:44:06;;;;;;;3.67;2.08;;;;;;;;;;10057589;28;20132;-64
2022/07/06 07:49:00;;;;;;;3.25;1.50;;;;;;;;;;10056355;28;20132;-66
2022/07/06 07:53:55;;;;;;;2.33;1.13;;;;;;;;;;10053641;28;20046;-66
2022/07/06 07:58:50;;;;;;;9.82;1.80;;;;;;;;;;10050244;28;20440;-65
2022/07/06 08:03:48;;;;;;;9.75;1.90;;;;;;;;;;10058584;28;20057;-65
2022/07/06 08:08:42;;;;;;;7.45;1.90;;;;;;;;;;10047335;28;20551;-65
2022/07/06 08:13:37;;;;;;;6.57;1.40;;;;;;;;;;10051995;28;20049;-65
2022/07/06 08:18:31;;;;;;;7.88;1.77;;;;;;;;;;10047797;28;20130;-65
2022/07/06 08:23:25;;;;;;;4.07;1.23;;;;;;;;;;10053663;28;20045;-65
2022/07/06 08:28:20;;;;;;;5.28;1.58;;;;;;;;;;10055349;28;20504;-64
2022/07/06 08:33:15;;;;;;;8.32;2.28;;;;;;;;;;10060212;28;20062;-65
2022/07/06 08:38:09;;;;;;;8.00;1.98;;;;;;;;;;10051591;28;20132;-65
2022/07/06 08:43:03;;;;;;;4.55;1.58;;;;;;;;;;10051327;28;20042;-65
2022/07/06 08:47:59;;;;;;;9.55;1.90;;;;;;;;;;10059404;28;20041;-65
2022/07/06 08:52:54;;;;;;;7.55;1.85;;;;;;;;;;10057430;28;20058;-65
2022/07/06 08:57:48;;;;;;;9.38;2.13;;;;;;;;;;10044731;28;20072;-66
2022/07/06 09:02:42;;;;;;;8.48;2.53;;;;;;;;;;10055970;28;20046;-65
2022/07/06 09:07:36;;;;;;;7.80;1.70;;;;;;;;;;10048393;28;20409;-65
2022/07/06 09:12:50;;;;;;;9.15;2.00;;;;;;;;;;10055093;28;20046;-66
2022/07/06 09:17:44;;;;;;;13.00;2.08;;;;;;;;;;10065719;28;20095;-65
2022/07/06 09:22:39;;;;;;;4.97;1.58;;;;;;;;;;10068006;28;20054;-65
2022/07/06 09:27:38;;;;;;;6.28;2.22;;;;;;;;;;10059324;28;20098;-65
2022/07/06 09:32:38;;;;;;;6.32;2.00;;;;;;;;;;10054180;28;20496;-66
2022/07/06 09:37:31;;;;;;;3.85;1.92;;;;;;;;;;10051693;28;20384;-66
2022/07/06 09:42:26;;;;;;;6.25;2.33;;;;;;;;;;10063733;28;20049;-66
2022/07/06 09:47:20;;;;;;;6.15;1.83;;;;;;;;;;10055110;28;20053;-66
2022/07/06 09:52:14;;;;;;;6.53;2.00;;;;;;;;;;10057436;28;20050;-66
2022/07/06 09:57:09;;;;;;;8.60;2.40;;;;;;;;;;10051840;28;20428;-65
2022/07/06 10:02:08;;;;;;;11.00;2.38;;;;;;;;;;10052119;28;20129;-66
2022/07/06 10:07:07;;;;;;;6.13;2.25;;;;;;;;;;10059625;28;20061;-67
2022/07/06 10:12:02;;;;;;;6.68;1.98;;;;;;;;;;10057240;28;20037;-67
2022/07/06 10:16:58;;;;;;;8.77;2.20;;;;;;;;;;10059824;28;20505;-67
2022/07/06 10:21:52;;;;;;;8.38;2.17;;;;;;;;;;10053907;28;20049;-67
2022/07/06 10:26:46;;;;;;;7.07;2.35;;;;;;;;;;10061306;28;20572;-67
2022/07/06 10:31:42;;;;;;;5.47;2.22;;;;;;;;;;10057648;28;20055;-67
2022/07/06 10:36:41;;;;;;;8.82;2.40;;;;;;;;;;10061053;28;20045;-67
2022/07/06 10:41:35;;;;;;;7.30;2.28;;;;;;;;;;10055065;28;20095;-67
2022/07/06 10:46:34;;;;;;;9.63;2.70;;;;;;;;;;10053957;28;20107;-67
2022/07/06 10:51:32;;;;;;;6.30;2.35;;;;;;;;;;10052854;28;20484;-67
2022/07/06 10:57:00;;;;;;;11.13;2.15;;;;;;;;;;10053990;28;20046;-67
2022/07/06 11:02:18;;;;;;;7.07;2.05;;;;;;;;;;10050940;28;20073;-67
2022/07/06 11:07:13;;;;;;;9.57;2.35;;;;;;;;;;10052007;28;20400;-67
2022/07/06 11:12:20;;;;;;;4.75;2.30;;;;;;;;;;10055820;28;20058;-67
2022/07/06 11:17:15;;;;;;;;;;;;;;;;;;10049982;28;20120;-67
2022/07/06 11:22:10;;;;;;;9.45;3.55;;;;;;;;;;10059325;28;20287;-67
2022/07/06 11:27:06;;;;;;;9.73;2.13;;;;;;;;;;10055404;28;20061;-67
2022/07/06 11:32:03;;;;;;;6.93;2.27;;;;;;;;;;10056742;28;20493;-67
2022/07/06 11:36:57;;;;;;;;;;;;;;;;;;10054423;28;20372;-67
2022/07/06 11:41:52;;;;;;;6.05;2.05;;;;;;;;;;10060296;28;19943;-68
2022/07/06 11:46:46;;;;;;;3.97;2.50;;;;;;;;;;10055321;28;20501;-68
2022/07/06 11:51:42;;;;;;;4.95;2.10;;;;;;;;;;10062920;28;20132;-67
2022/07/06 11:56:36;;;;;;;8.82;2.38;;;;;;;;;;10045324;28;20057;-68
2022/07/06 12:01:31;;;;;;;8.70;1.90;;;;;;;;;;10048009;28;20116;-67
2022/07/06 12:06:26;;;;;;;4.05;1.90;;;;;;;;;;10049375;28;20056;-67
2022/07/06 12:11:41;;;;;;;8.80;2.50;;;;;;;;;;10050593;28;20041;-67
2022/07/06 12:16:36;;;;;;;4.68;1.80;;;;;;;;;;10057867;28;20552;-67
2022/07/06 12:21:31;;;;;;;4.22;2.15;;;;;;;;;;10045461;28;20052;-66
2022/07/06 12:26:29;;;;;;;7.10;2.25;;;;;;;;;;10045673;28;20128;-66
2022/07/06 12:31:38;;;;;;;4.70;1.83;;;;;;;;;;10049655;28;20045;-67
2022/07/06 12:36:45;;;;;;;5.05;1.98;;;;;;;;;;10051445;28;20128;-66
2022/07/06 12:41:45;;;;;;;5.50;2.00;;;;;;;;;;10046551;28;20111;-66
2022/07/06 12:46:41;;;;;;;7.70;2.13;;;;;;;;;;10052139;28;20062;-67
2022/07/06 12:52:01;;;;;;;8.17;2.47;;;;;;;;;;10057050;28;20104;-67
2022/07/06 12:57:05;;;;;;;5.45;2.55;;;;;;;;;;10044229;28;20057;-66
2022/07/06 13:01:59;;;;;;;5.47;2.15;;;;;;;;;;10040278;28;20050;-66
2022/07/06 13:06:53;;;;;;;8.13;2.45;;;;;;;;;;10046646;28;20114;-66
2022/07/06 13:11:48;;;;;;;5.78;2.20;;;;;;;;;;10066568;28;20077;-64
2022/07/06 13:16:43;;;;;;;8.13;2.17;;;;;;;;;;10070831;28;20073;-65
2022/07/06 13:21:36;;;;;;;4.60;2.33;;;;;;;;;;10071743;28;20515;-65
2022/07/06 13:26:33;;;;;;;13.45;2.83;;;;;;;;;;10071309;28;20073;-65
2022/07/06 13:31:27;;;;;;;7.17;1.90;;;;;;;;;;10070970;28;20052;-65
2022/07/06 13:36:21;;;;;;;2.63;1.60;;;;;;;;;;10070899;28;20054;-65
2022/07/06 13:41:15;;;;;;;6.30;1.65;;;;;;;;;;10070326;28;20049;-63
2022/07/06 13:46:10;;;;;;;2.92;1.92;;;;;;;;;;10064698;28;20092;-63
2022/07/06 13:51:04;;;;;;;5.40;2.25;;;;;;;;;;10068347;28;20136;-63
2022/07/06 13:55:58;;;;;;;3.97;1.50;;;;;;;;;;10067236;28;20056;-63
2022/07/06 14:00:53;;;;;;;4.15;1.70;;;;;;;;;;10065607;28;20136;-63
2022/07/06 14:05:46;;;;;;;4.53;1.80;;;;;;;;;;10068997;28;20132;-63
2022/07/06 14:10:40;;;;;;;3.50;1.40;;;;;;;;;;10067410;28;20064;-64
2022/07/06 14:15:35;;;;;;;4.38;2.25;;;;;;;;;;10068227;28;20140;-63
2022/07/06 14:20:28;;;;;;;4.53;1.70;;;;;;;;;;10069044;28;20049;-63
2022/07/06 14:25:22;;;;;;;6.03;2.38;;;;;;;;;;10068613;28;20056;-65
2022/07/06 14:30:17;;;;;;;2.00;1.67;;;;;;;;;;10068915;28;20081;-65
2022/07/06 14:35:11;;;;;;;8.75;2.22;;;;;;;;;;10069519;28;20504;-63
2022/07/06 14:40:06;;;;;;;3.95;2.20;;;;;;;;;;10067981;28;20045;-63
2022/07/06 14:44:59;;;;;;;9.75;2.03;;;;;;;;;;10067791;28;20085;-64
2022/07/06 14:49:54;;;;;;;6.05;1.83;;;;;;;;;;10067716;28;20112;-64
2022/07/06 14:54:47;;;;;;;6.72;2.03;;;;;;;;;;10066335;28;20091;-64
2022/07/06 14:59:41;;;;;;;6.57;1.85;;;;;;;;;;10066557;28;20420;-66
2022/07/06 15:04:35;;;;;;;6.00;2.25;;;;;;;;;;10066080;28;20050;-64
2022/07/06 15:09:30;;;;;;;2.22;1.70;;;;;;;;;;10067269;28;20033;-64
2022/07/06 15:14:24;;;;;;;7.30;2.00;;;;;;;;;;10066289;28;20033;-64
2022/07/06 15:19:18;;;;;;;7.68;2.05;;;;;;;;;;10065700;28;20452;-64
2022/07/06 15:24:12;;;;;;;5.60;2.20;;;;;;;;;;10066199;28;20114;-63
2022/07/06 15:29:07;;;;;;;6.80;2.15;;;;;;;;;;10065461;28;20104;-65
2022/07/06 15:34:00;;;;;;;3.92;2.25;;;;;;;;;;10064793;28;20057;-66
2022/07/06 15:38:54;;;;;;;3.47;2.42;;;;;;;;;;10065848;28;20045;-66
2022/07/06 15:43:48;;;;;;;6.15;1.95;;;;;;;;;;10065006;28;20128;-64
2022/07/06 15:48:47;;;;;;;9.05;2.03;;;;;;;;;;10058080;28;20069;-66
2022/07/06 15:53:44;;;;;;;6.28;2.30;;;;;;;;;;10064310;28;20053;-63
2022/07/06 15:58:38;;;;;;;7.20;2.00;;;;;;;;;;10060556;28;20068;-67
2022/07/06 16:03:32;;;;;;;3.65;1.75;;;;;;;;;;10059555;28;20045;-64
2022/07/06 16:08:26;;;;;;;3.97;1.95;;;;;;;;;;10064180;28;20523;-66
2022/07/06 16:13:35;;;;;;;2.22;1.67;;;;;;;;;;10066173;28;20528;-66
2022/07/06 16:18:29;;;;;;;6.63;1.60;;;;;;;;;;10071625;28;20046;-66
2022/07/06 16:23:24;;;;;;;9.73;1.60;;;;;;;;;;10073528;28;20077;-65
2022/07/06 16:28:18;;;;;;;3.53;1.60;;;;;;;;;;10070300;28;20069;-66
2022/07/06 16:33:16;;;;;;;3.30;1.50;;;;;;;;;;10062517;28;20077;-66
2022/07/06 16:38:10;;;;;;;7.35;3.13;;;;;;;;;;10048048;28;20057;-67
2022/07/06 16:43:05;;;;;;;5.53;1.50;;;;;;;;;;10054703;28;20045;-67
2022/07/06 16:47:58;;;;;;;5.28;1.70;;;;;;;;;;10065855;28;20742;-67
2022/07/06 16:52:52;;;;;;;3.40;1.38;;;;;;;;;;10064903;28;20049;-67
2022/07/06 16:57:45;;;;;;;5.90;1.58;;;;;;;;;;10053745;28;20071;-67
2022/07/06 17:02:39;;;;;;;3.13;1.48;;;;;;;;;;10068977;28;20045;-67
2022/07/06 17:07:33;;;;;;;4.22;1.48;;;;;;;;;;10067006;28;20041;-66
2022/07/06 17:12:30;;;;;;;4.03;1.33;;;;;;;;;;10066629;28;20060;-66
2022/07/06 17:17:25;;;;;;;4.05;1.85;;;;;;;;;;10067900;28;20100;-66
2022/07/06 17:22:19;;;;;;;1.85;1.15;;;;;;;;;;10055316;28;20050;-67
2022/07/06 17:27:14;;;;;;;1.90;1.42;;;;;;;;;;10061104;28;20060;-67
2022/07/06 17:32:09;;;;;;;2.70;1.20;;;;;;;;;;10055180;28;20037;-67
2022/07/06 17:37:04;;;;;;;2.30;1.95;;;;;;;;;;10061074;28;20497;-69
2022/07/06 17:41:58;;;;;;;8.18;2.00;;;;;;;;;;10052817;28;20056;-69
2022/07/06 17:46:53;;;;;;;2.45;1.30;;;;;;;;;;10064926;28;20458;-69
2022/07/06 17:51:48;;;;;;;2.25;1.77;;;;;;;;;;10057456;28;20056;-73
2022/07/06 17:56:41;;;;;;;2.45;2.20;;;;;;;;;;10057806;28;20057;-71
2022/07/06 18:01:37;;;;;;;2.95;1.95;;;;;;;;;;10055897;28;20049;-72
2022/07/06 18:06:34;;;;;;;2.58;1.63;;;;;;;;;;10054305;28;20079;-72
2022/07/06 18:11:27;;;;;;;3.70;1.80;;;;;;;;;;10053291;28;20129;-71
2022/07/06 18:16:22;;;;;;;4.72;1.90;;;;;;;;;;10064146;28;20056;-71
2022/07/06 18:21:17;;;;;;;4.05;2.13;;;;;;;;;;10044833;28;20385;-71
2022/07/06 18:26:14;;;;;;;6.47;2.75;;;;;;;;;;10060754;28;20084;-71
2022/07/06 18:31:08;;;;;;;5.05;2.33;;;;;;;;;;10056287;28;20049;-71
2022/07/06 18:36:03;;;;;;;7.38;1.60;;;;;;;;;;10064424;28;20081;-76
2022/07/06 18:41:00;;;;;;;6.20;2.28;;;;;;;;;;10062633;28;20401;-71
2022/07/06 18:45:54;;;;;;;6.80;1.80;;;;;;;;;;10055953;28;20049;-72
2022/07/06 18:50:49;;;;;;;5.70;1.77;;;;;;;;;;10058825;28;20120;-72
2022/07/06 18:55:43;;;;;;;4.45;1.70;;;;;;;;;;10063307;28;20128;-72
2022/07/06 19:00:37;;;;;;;6.88;1.73;;;;;;;;;;10063525;28;21756;-72
2022/07/06 19:05:31;;;;;;;7.63;1.80;;;;;;;;;;10061208;28;20406;-72
2022/07/06 19:10:25;;;;;;;4.68;1.75;;;;;;;;;;10064308;28;20096;-72
2022/07/06 19:15:20;;;;;;;5.90;1.85;;;;;;;;;;10061461;28;20552;-69
2022/07/06 19:20:13;;;;;;;3.45;1.73;;;;;;;;;;10063524;28;20103;-69
2022/07/06 19:25:07;;;;;;;3.42;1.58;;;;;;;;;;10058685;28;20519;-69
2022/07/06 19:30:01;;;;;;;2.05;1.83;;;;;;;;;;10055430;28;20057;-67
2022/07/06 19:34:55;;;;;;;3.45;2.42;;;;;;;;;;10060696;28;20559;-68
2022/07/06 19:39:49;;;;;;;3.72;1.50;;;;;;;;;;10066231;28;20095;-68
2022/07/06 19:44:43;;;;;;;8.13;2.15;;;;;;;;;;10063187;28;20072;-68
2022/07/06 19:49:36;;;;;;;2.65;2.13;;;;;;;;;;10055675;28;20049;-69
2022/07/06 19:54:29;;;;;;;4.15;2.63;;;;;;;;;;10062353;28;20159;-68
2022/07/06 19:59:23;;;;;;;6.28;2.45;;;;;;;;;;10063682;28;20087;-68
2022/07/06 20:04:20;;;;;;;6.82;2.03;;;;;;;;;;10061092;28;20415;-67
2022/07/06 20:09:17;;;;;;;2.58;2.00;;;;;;;;;;10057766;28;20161;-68
2022/07/06 20:14:11;;;;;;;2.47;1.83;;;;;;;;;;10063019;28;20050;-67
2022/07/06 20:19:06;;;;;;;5.05;1.90;;;;;;;;;;10064147;28;20500;-68
2022/07/06 20:23:59;;;;;;;6.22;1.85;;;;;;;;;;10061835;28;20042;-69
2022/07/06 20:28:53;;;;;;;3.65;2.08;;;;;;;;;;10061232;28;20042;-69
2022/07/06 20:33:46;;;;;;;6.07;2.47;;;;;;;;;;10061435;28;20053;-69
2022/07/06 20:38:41;;;;;;;5.22;2.20;;;;;;;;;;10063916;28;20107;-69
2022/07/06 20:43:36;;;;;;;6.85;2.50;;;;;;;;;;10060376;28;20053;-69
2022/07/06 20:48:35;;;;;;;13.13;2.83;;;;;;;;;;10058396;28;20062;-74
2022/07/06 20:53:29;;;;;;;6.30;2.58;;;;;;;;;;10055517;28;20050;-75
2022/07/06 20:58:24;;;;;;;4.32;2.50;;;;;;;;;;10062715;28;20069;-72
2022/07/06 21:03:38;;;;;;;7.70;2.20;;;;;;;;;;10058024;28;20060;-70
2022/07/06 21:08:32;;;;;;;6.70;2.15;;;;;;;;;;10065859;28;20061;-73
2022/07/06 21:13:27;;;;;;;7.80;2.45;;;;;;;;;;10062128;28;20053;-76
2022/07/06 21:18:21;;;;;;;14.07;3.35;;;;;;;;;;10069967;28;20057;-76
2022/07/06 21:23:17;;;;;;;7.50;2.50;;;;;;;;;;10063135;28;20131;-74
2022/07/06 21:28:10;;;;;;;6.55;2.88;;;;;;;;;;10065749;28;20058;-72
2022/07/06 21:33:04;;;;;;;10.10;2.72;;;;;;;;;;10068120;28;20080;-75
2022/07/06 21:37:58;;;;;;;6.70;3.92;;;;;;;;;;10070597;28;20574;-75
2022/07/06 21:42:53;;;;;;;14.77;2.70;;;;;;;;;;10068980;28;20042;-76
2022/07/06 21:47:48;;;;;;;6.78;3.20;;;;;;;;;;10066872;28;20049;-72
2022/07/06 21:52:44;;;;;;;16.77;3.20;;;;;;;;;;10069779;28;20056;-73
2022/07/06 21:57:39;;;;;;;6.32;2.97;;;;;;;;;;10068731;28;20057;-72
2022/07/06 22:02:34;;;;;;;16.20;3.28;;;;;;;;;;10069828;28;20393;-72
2022/07/06 22:07:28;;;;;;;6.65;2.75;;;;;;;;;;10069592;28;20091;-72
2022/07/06 22:12:21;;;;;;;5.95;2.92;;;;;;;;;;10070429;28;20049;-73
2022/07/06 22:17:16;;;;;;;6.10;3.85;;;;;;;;;;10070426;28;20057;-70
2022/07/06 22:22:09;;;;;;;3.38;3.08;;;;;;;;;;10069680;28;20045;-73
2022/07/06 22:27:04;;;;;;;9.50;2.72;;;;;;;;;;10068927;28;20045;-69
2022/07/06 22:31:59;;;;;;;9.25;4.13;;;;;;;;;;10069110;28;20129;-67
2022/07/06 22:36:53;;;;;;;7.38;4.25;;;;;;;;;;10071919;28;20058;-67
2022/07/06 22:41:47;;;;;;;6.05;3.70;;;;;;;;;;10068475;28;20053;-67
2022/07/06 22:46:41;;;;;;;5.05;4.30;;;;;;;;;;10069647;28;20500;-67
2022/07/06 22:51:35;;;;;;;4.40;4.00;;;;;;;;;;10069118;28;20408;-70
2022/07/06 22:56:30;;;;;;;5.65;4.40;;;;;;;;;;10068352;28;20389;-67
2022/07/06 23:01:24;;;;;;;13.05;4.65;;;;;;;;;;10068721;28;20054;-66
2022/07/06 23:06:41;;;;;;;12.38;4.53;;;;;;;;;;10068310;28;20129;-67
2022/07/06 23:11:35;;;;;;;9.27;4.53;;;;;;;;;;10064835;28;20054;-66
2022/07/06 23:16:29;;;;;;;9.05;5.35;;;;;;;;;;10068362;28;20045;-66
2022/07/06 23:21:25;;;;;;;13.70;5.53;;;;;;;;;;10067962;28;20084;-66
2022/07/06 23:26:18;;;;;;;12.20;6.75;;;;;;;;;;10066574;28;20053;-67
2022/07/06 23:31:12;;;;;;;8.85;5.97;;;;;;;;;;10067573;28;20073;-68
2022/07/06 23:36:07;;;;;;;11.05;5.80;;;;;;;;;;10061081;28;20050;-69
2022/07/06 23:41:01;;;;;;;10.77;6.78;;;;;;;;;;10059618;28;20416;-67
2022/07/06 23:45:55;;;;;;;9.15;5.20;;;;;;;;;;10060341;28;20496;-67
2022/07/06 23:50:48;;;;;;;9.05;4.50;;;;;;;;;;10063619;28;20123;-67
2022/07/06 23:55:43;;;;;;;10.27;4.45;;;;;;;;;;10065508;28;20061;-67
